createdAt,value
2023-04-09T00:02:10.424Z,7.28
2023-04-09T00:07:12.519Z,7.34
2023-04-09T00:12:14.392Z,7.34
2023-04-09T00:17:17.102Z,7.26
2023-04-09T00:22:19.096Z,7.15
2023-04-09T00:27:21.281Z,7.03
2023-04-09T00:32:23.147Z,6.96
2023-04-09T00:37:25.592Z,6.94
2023-04-09T00:42:27.604Z,6.82
2023-04-09T00:47:31.351Z,6.71
2023-04-09T00:52:34.012Z,6.68
2023-04-09T00:57:36.524Z,6.66
2023-04-09T01:02:39.167Z,6.64
2023-04-09T01:08:10.839Z,6.62
2023-04-09T01:13:23.776Z,6.61
2023-04-09T01:18:32.640Z,6.63
2023-04-09T01:24:02.779Z,6.66
2023-04-09T01:29:18.650Z,6.69
2023-04-09T01:34:20.842Z,6.73
2023-04-09T01:39:23.513Z,6.75
2023-04-09T01:44:27.638Z,6.71
2023-04-09T01:49:31.127Z,6.75
2023-04-09T01:54:33.342Z,6.80
2023-04-09T01:59:35.581Z,6.85
2023-04-09T02:04:43.627Z,6.89
2023-04-09T02:09:48.058Z,6.96
2023-04-09T02:14:53.097Z,7.01
2023-04-09T02:19:55.441Z,7.05
2023-04-09T02:24:57.571Z,7.06
2023-04-09T02:29:59.597Z,7.03
2023-04-09T02:35:01.659Z,6.98
2023-04-09T02:40:04.559Z,6.95
2023-04-09T02:45:07.531Z,6.94
2023-04-09T02:50:09.783Z,6.91
2023-04-09T02:55:15.458Z,6.87
2023-04-09T03:00:17.714Z,6.85
2023-04-09T03:05:19.593Z,6.83
2023-04-09T03:10:21.702Z,6.77
2023-04-09T03:15:23.602Z,6.75
2023-04-09T03:20:26.020Z,6.77
2023-04-09T03:25:28.502Z,6.77
2023-04-09T03:30:31.557Z,6.74
2023-04-09T03:35:34.992Z,6.74
2023-04-09T03:40:38.868Z,6.74
2023-04-09T03:45:40.745Z,6.77
2023-04-09T03:50:54.400Z,6.77
2023-04-09T03:56:03.611Z,6.73
2023-04-09T04:01:06.979Z,6.68
2023-04-09T04:06:18.407Z,6.62
2023-04-09T04:11:46.713Z,6.56
2023-04-09T04:16:49.132Z,6.58
2023-04-09T04:21:53.591Z,6.56
2023-04-09T04:26:56.834Z,6.59
2023-04-09T04:32:01.055Z,6.67
2023-04-09T04:37:07.619Z,6.77
2023-04-09T04:42:09.714Z,6.87
2023-04-09T04:47:12.286Z,7.00
2023-04-09T04:52:16.623Z,7.06
2023-04-09T04:57:21.329Z,7.16
2023-04-09T05:02:23.748Z,7.25
2023-04-09T05:07:48.663Z,7.34
2023-04-09T05:12:50.964Z,7.42
2023-04-09T05:18:00.918Z,7.50
2023-04-09T05:23:04.309Z,7.57
2023-04-09T05:28:12.529Z,7.66
2023-04-09T05:33:16.106Z,7.83
2023-04-09T05:38:18.495Z,7.97
2023-04-09T05:43:22.415Z,8.08
2023-04-09T05:48:24.482Z,8.19
2023-04-09T05:53:30.026Z,8.32
2023-04-09T05:58:32.508Z,8.43
2023-04-09T06:03:34.913Z,8.52
2023-04-09T06:08:37.225Z,8.58
2023-04-09T06:13:40.293Z,8.68
2023-04-09T06:18:42.905Z,8.79
2023-04-09T06:23:44.963Z,8.80
2023-04-09T06:28:48.053Z,8.84
2023-04-09T06:33:50.891Z,8.80
2023-04-09T06:38:53.785Z,8.72
2023-04-09T06:43:55.952Z,8.81
2023-04-09T06:48:58.615Z,8.89
2023-04-09T06:54:03.241Z,8.95
2023-04-09T06:59:07.242Z,8.96
2023-04-09T07:04:09.976Z,9.06
2023-04-09T07:09:12.021Z,9.22
2023-04-09T07:14:14.255Z,9.37
2023-04-09T07:19:16.552Z,9.49
2023-04-09T07:24:19.028Z,9.49
2023-04-09T07:29:22.561Z,9.42
2023-04-09T07:34:26.683Z,9.33
2023-04-09T07:39:29.256Z,9.42
2023-04-09T07:44:36.732Z,9.70
2023-04-09T07:49:39.482Z,9.99
2023-04-09T07:54:42.395Z,10.24
2023-04-09T07:59:45.010Z,10.46
2023-04-09T08:04:47.539Z,10.69
2023-04-09T08:09:49.556Z,10.84
2023-04-09T08:14:52.169Z,10.88
2023-04-09T08:19:54.100Z,10.83
2023-04-09T08:24:59.449Z,10.67
2023-04-09T08:30:07.056Z,10.49
2023-04-09T08:35:11.247Z,10.47
2023-04-09T08:40:13.370Z,10.43
2023-04-09T08:45:17.370Z,10.42
2023-04-09T08:50:20.637Z,10.51
2023-04-09T08:55:23.627Z,10.53
2023-04-09T09:00:26.405Z,10.60
2023-04-09T09:05:47.319Z,10.76
2023-04-09T09:10:50.423Z,10.88
2023-04-09T09:15:56.574Z,11.01
2023-04-09T09:21:12.728Z,11.18
2023-04-09T09:26:17.008Z,11.28
2023-04-09T09:31:21.972Z,11.34
2023-04-09T09:36:35.660Z,11.45
2023-04-09T09:41:39.629Z,11.64
2023-04-09T09:46:47.195Z,11.76
2023-04-09T09:51:56.974Z,11.75
2023-04-09T09:57:04.885Z,11.90
2023-04-09T10:02:22.348Z,11.98
2023-04-09T10:07:25.716Z,11.93
2023-04-09T10:12:32.241Z,12.03
2023-04-09T10:17:34.393Z,12.21
2023-04-09T10:22:36.753Z,12.22
2023-04-09T10:27:39.988Z,12.26
2023-04-09T10:32:44.142Z,12.36
2023-04-09T10:37:51.023Z,12.40
2023-04-09T10:42:57.125Z,12.45
2023-04-09T10:48:03.247Z,12.39
2023-04-09T10:53:06.538Z,12.29
2023-04-09T10:58:13.674Z,12.10
2023-04-09T11:03:32.653Z,12.07
2023-04-09T11:08:39.247Z,12.13
2023-04-09T11:13:42.101Z,12.18
2023-04-09T11:18:45.100Z,12.32
2023-04-09T11:23:53.729Z,12.38
2023-04-09T11:28:58.222Z,12.37
2023-04-09T11:34:00.879Z,12.45
2023-04-09T11:39:04.371Z,12.56
2023-04-09T11:44:08.146Z,12.64
2023-04-09T11:49:10.630Z,12.74
2023-04-09T11:54:12.591Z,12.82
2023-04-09T11:59:15.786Z,12.94
2023-04-09T12:04:21.661Z,13.09
2023-04-09T12:09:24.379Z,13.30
2023-04-09T12:14:29.566Z,13.53
2023-04-09T12:19:31.918Z,13.76
2023-04-09T12:24:33.956Z,13.80
2023-04-09T12:29:36.156Z,13.80
2023-04-09T12:34:38.679Z,13.88
2023-04-09T12:39:41.244Z,14.04
2023-04-09T12:44:43.017Z,14.14
2023-04-09T12:49:46.944Z,14.37
2023-04-09T12:54:49.096Z,14.45
2023-04-09T13:00:18.646Z,14.57
2023-04-09T13:05:21.785Z,14.64
2023-04-09T13:10:29.723Z,14.68
2023-04-09T13:15:31.736Z,14.84
2023-04-09T13:20:33.771Z,14.90
2023-04-09T13:25:35.728Z,14.95
2023-04-09T13:30:37.825Z,15.13
2023-04-09T13:35:40.937Z,15.20
2023-04-09T13:40:43.954Z,15.24
2023-04-09T13:45:46.308Z,15.26
2023-04-09T13:50:48.560Z,15.14
2023-04-09T13:55:50.692Z,14.88
2023-04-09T14:00:53.246Z,14.76
2023-04-09T14:05:55.241Z,14.80
2023-04-09T14:10:57.603Z,14.77
2023-04-09T14:16:00.494Z,14.71
2023-04-09T14:21:03.356Z,14.59
2023-04-09T14:26:06.603Z,14.39
2023-04-09T14:31:08.838Z,14.12
2023-04-09T14:36:11.530Z,13.81
2023-04-09T14:41:14.980Z,13.57
2023-04-09T14:46:17.232Z,13.41
2023-04-09T14:51:19.431Z,13.25
2023-04-09T14:56:21.266Z,13.12
2023-04-09T15:01:24.474Z,13.03
2023-04-09T15:06:28.014Z,12.94
2023-04-09T15:11:30.262Z,12.87
2023-04-09T15:16:37.520Z,12.81
2023-04-09T15:21:39.802Z,12.68
2023-04-09T15:26:41.828Z,12.54
2023-04-09T15:31:44.190Z,12.47
2023-04-09T15:36:46.350Z,12.36
2023-04-09T15:41:48.443Z,12.30
2023-04-09T15:46:51.067Z,12.21
2023-04-09T15:51:53.784Z,12.14
2023-04-09T15:56:55.808Z,12.08
2023-04-09T16:01:58.770Z,12.09
2023-04-09T16:07:02.480Z,12.08
2023-04-09T16:12:05.098Z,12.11
2023-04-09T16:17:07.258Z,12.09
2023-04-09T16:22:10.134Z,12.01
2023-04-09T16:27:13.955Z,11.90
2023-04-09T16:32:16.732Z,11.76
2023-04-09T16:37:20.441Z,11.61
2023-04-09T16:42:22.862Z,11.46
2023-04-09T16:47:25.734Z,11.32
2023-04-09T16:52:30.921Z,11.22
2023-04-09T16:57:32.903Z,11.14
2023-04-09T17:02:37.237Z,11.03
2023-04-09T17:07:39.388Z,10.93
2023-04-09T17:12:42.302Z,10.77
2023-04-09T17:17:45.740Z,10.65
2023-04-09T17:22:48.432Z,10.55
2023-04-09T17:27:50.280Z,10.47
2023-04-09T17:32:52.403Z,10.42
2023-04-09T17:37:55.380Z,10.32
2023-04-09T17:42:58.981Z,10.24
2023-04-09T17:48:00.796Z,10.12
2023-04-09T17:53:02.956Z,10.04
2023-04-09T17:58:04.953Z,9.95
2023-04-09T18:03:07.254Z,9.89
2023-04-09T18:08:09.381Z,9.87
2023-04-09T18:13:11.497Z,9.80
2023-04-09T18:18:13.852Z,9.71
2023-04-09T18:23:16.003Z,9.66
2023-04-09T18:28:18.296Z,9.64
2023-04-09T18:33:20.921Z,9.65
2023-04-09T18:38:23.145Z,9.60
2023-04-09T18:43:26.181Z,9.55
2023-04-09T18:48:28.101Z,9.52
2023-04-09T18:53:31.524Z,9.50
2023-04-09T18:58:34.000Z,9.45
2023-04-09T19:03:36.851Z,9.36
2023-04-09T19:08:39.244Z,9.36
2023-04-09T19:13:41.355Z,9.29
2023-04-09T19:18:43.684Z,9.26
2023-04-09T19:23:48.815Z,9.20
2023-04-09T19:28:50.994Z,9.12
2023-04-09T19:33:53.190Z,9.06
2023-04-09T19:38:56.102Z,8.98
2023-04-09T19:43:58.867Z,8.92
2023-04-09T19:49:01.068Z,8.86
2023-04-09T19:54:03.661Z,8.83
2023-04-09T19:59:05.865Z,8.78
2023-04-09T20:04:09.532Z,8.79
2023-04-09T20:09:14.367Z,8.78
2023-04-09T20:14:16.456Z,8.79
2023-04-09T20:19:19.950Z,8.73
2023-04-09T20:24:25.264Z,8.69
2023-04-09T20:29:27.199Z,8.64
2023-04-09T20:34:29.329Z,8.64
2023-04-09T20:39:32.070Z,8.64
2023-04-09T20:44:34.105Z,8.63
2023-04-09T20:49:36.251Z,8.58
2023-04-09T20:54:39.343Z,8.59
2023-04-09T20:59:41.308Z,8.57
2023-04-09T21:04:43.567Z,8.56
2023-04-09T21:09:47.301Z,8.54
2023-04-09T21:14:54.456Z,8.55
2023-04-09T21:19:56.764Z,8.54
2023-04-09T21:24:58.808Z,8.54
2023-04-09T21:30:00.792Z,8.57
2023-04-09T21:35:03.271Z,8.58
2023-04-09T21:40:06.506Z,8.57
2023-04-09T21:45:10.452Z,8.61
2023-04-09T21:50:13.851Z,8.60
2023-04-09T21:55:22.047Z,8.57
2023-04-09T22:00:24.181Z,8.57
2023-04-09T22:05:26.468Z,8.56
2023-04-09T22:10:28.437Z,8.55
2023-04-09T22:15:30.479Z,8.56
2023-04-09T22:20:32.486Z,8.54
2023-04-09T22:25:35.409Z,8.53
2023-04-09T22:30:37.287Z,8.52
2023-04-09T22:35:39.369Z,8.49
2023-04-09T22:40:41.988Z,8.50
2023-04-09T22:45:52.879Z,8.44
2023-04-09T22:50:55.009Z,8.41
2023-04-09T22:55:58.982Z,8.38
2023-04-09T23:01:02.079Z,8.43
2023-04-09T23:06:04.465Z,8.48
2023-04-09T23:11:07.298Z,8.50
2023-04-09T23:16:10.539Z,8.51
2023-04-09T23:21:13.046Z,8.50
2023-04-09T23:26:15.111Z,8.52
2023-04-09T23:31:17.028Z,8.52
2023-04-09T23:36:19.623Z,8.50
2023-04-09T23:41:23.140Z,8.47
2023-04-09T23:46:26.586Z,8.44
2023-04-09T23:51:29.865Z,8.41
2023-04-09T23:56:31.823Z,8.37
